createdAt,value
2023-03-22T00:00:06.692Z,36.30
2023-03-22T00:02:54.460Z,32.90
2023-03-22T00:05:22.180Z,31.60
2023-03-22T00:07:50.558Z,30.20
2023-03-22T00:10:18.218Z,29.80
2023-03-22T00:12:45.880Z,34.30
2023-03-22T00:15:13.543Z,35.30
2023-03-22T00:17:42.225Z,32.80
2023-03-22T00:20:10.306Z,34.10
2023-03-22T00:22:37.964Z,33.70
2023-03-22T00:25:05.623Z,32.80
2023-03-22T00:27:33.284Z,30.60
2023-03-22T00:30:01.053Z,32.40
2023-03-22T00:32:28.720Z,32.80
2023-03-22T00:34:56.378Z,31.20
2023-03-22T00:37:24.035Z,31.60
2023-03-22T00:39:51.702Z,32.70
2023-03-22T00:42:19.358Z,28.80
2023-03-22T00:44:47.021Z,27.70
2023-03-22T00:47:15.508Z,26.60
2023-03-22T00:49:43.164Z,31.80
2023-03-22T00:52:10.828Z,36.60
2023-03-22T00:54:38.490Z,34.80
2023-03-22T00:57:06.251Z,29.80
2023-03-22T00:59:38.699Z,27.80
2023-03-22T01:02:06.694Z,25.70
2023-03-22T01:04:35.900Z,23.80
2023-03-22T01:07:06.008Z,24.90
2023-03-22T01:09:34.084Z,26.20
2023-03-22T01:12:02.160Z,27.70
2023-03-22T01:14:31.906Z,26.40
2023-03-22T01:16:59.644Z,25.70
2023-03-22T01:19:27.691Z,26.40
2023-03-22T01:21:55.457Z,27.40
2023-03-22T01:24:23.249Z,32.70
2023-03-22T01:26:51.294Z,28.80
2023-03-22T01:29:18.953Z,27.10
2023-03-22T01:31:46.613Z,27.60
2023-03-22T01:34:14.284Z,26.70
2023-03-22T01:36:41.941Z,27.90
2023-03-22T01:39:09.604Z,29.10
2023-03-22T01:41:37.674Z,26.00
2023-03-22T01:44:06.634Z,26.20
2023-03-22T01:46:34.892Z,26.90
2023-03-22T01:49:02.766Z,28.10
2023-03-22T01:51:30.475Z,43.00
2023-03-22T01:53:58.143Z,33.00
2023-03-22T01:56:26.001Z,26.40
2023-03-22T01:58:53.664Z,23.10
2023-03-22T02:01:21.500Z,24.60
2023-03-22T02:03:49.297Z,30.50
2023-03-22T02:06:17.060Z,32.10
2023-03-22T02:08:44.736Z,29.90
2023-03-22T02:11:12.487Z,31.10
2023-03-22T02:13:42.726Z,32.20
2023-03-22T02:16:10.735Z,34.00
2023-03-22T02:18:38.950Z,31.10
2023-03-22T02:21:06.687Z,29.60
2023-03-22T02:23:34.391Z,30.10
2023-03-22T02:26:02.037Z,31.10
2023-03-22T02:28:29.699Z,33.30
2023-03-22T02:30:57.393Z,32.70
2023-03-22T02:33:25.329Z,30.20
2023-03-22T02:35:53.090Z,29.60
2023-03-22T02:38:20.963Z,28.20
2023-03-22T02:40:48.692Z,27.50
2023-03-22T02:43:16.493Z,27.50
2023-03-22T02:45:44.259Z,29.90
2023-03-22T02:48:12.015Z,34.10
2023-03-22T02:50:40.112Z,31.50
2023-03-22T02:53:08.061Z,32.30
2023-03-22T02:55:35.923Z,33.80
2023-03-22T02:58:03.691Z,32.70
2023-03-22T03:00:31.503Z,33.20
2023-03-22T03:03:00.345Z,32.40
2023-03-22T03:05:28.001Z,31.40
2023-03-22T03:07:55.869Z,30.50
2023-03-22T03:10:23.632Z,33.40
2023-03-22T03:12:51.400Z,44.20
2023-03-22T03:15:19.057Z,43.40
2023-03-22T03:17:46.719Z,36.10
2023-03-22T03:20:14.380Z,31.30
2023-03-22T03:22:42.413Z,31.80
2023-03-22T03:25:13.901Z,32.50
2023-03-22T03:27:41.570Z,31.50
2023-03-22T03:30:10.250Z,33.50
2023-03-22T03:32:37.912Z,33.10
2023-03-22T03:35:05.573Z,33.30
2023-03-22T03:37:34.262Z,35.50
2023-03-22T03:40:01.926Z,34.30
2023-03-22T03:42:29.687Z,34.60
2023-03-22T03:44:57.359Z,35.70
2023-03-22T03:47:25.023Z,34.20
2023-03-22T03:49:52.677Z,34.10
2023-03-22T03:52:24.735Z,32.60
2023-03-22T03:54:52.500Z,30.80
2023-03-22T03:57:20.264Z,30.70
2023-03-22T03:59:48.051Z,27.90
2023-03-22T04:02:16.858Z,25.20
2023-03-22T04:04:44.728Z,22.40
2023-03-22T04:07:12.458Z,23.70
2023-03-22T04:09:40.724Z,23.30
2023-03-22T04:12:10.028Z,23.40
2023-03-22T04:14:38.099Z,22.80
2023-03-22T04:17:05.865Z,24.50
2023-03-22T04:19:33.522Z,24.90
2023-03-22T04:22:01.287Z,38.10
2023-03-22T04:24:29.055Z,53.00
2023-03-22T04:26:57.428Z,34.60
2023-03-22T04:29:25.093Z,24.80
2023-03-22T04:31:53.474Z,26.20
2023-03-22T04:34:21.129Z,23.70
2023-03-22T04:36:49.937Z,23.10
2023-03-22T04:39:17.681Z,24.70
2023-03-22T04:41:45.443Z,22.10
2023-03-22T04:44:13.208Z,21.90
2023-03-22T04:46:42.875Z,27.70
2023-03-22T04:49:10.684Z,32.30
2023-03-22T04:51:38.350Z,29.70
2023-03-22T04:54:06.212Z,30.90
2023-03-22T04:56:33.983Z,25.50
2023-03-22T04:59:01.839Z,23.00
2023-03-22T05:01:29.534Z,23.90
2023-03-22T05:03:57.575Z,22.50
2023-03-22T05:06:25.238Z,22.30
2023-03-22T05:08:52.899Z,23.70
2023-03-22T05:11:20.670Z,21.60
2023-03-22T05:13:48.332Z,21.70
2023-03-22T05:16:16.328Z,24.00
2023-03-22T05:18:45.691Z,21.10
2023-03-22T05:21:15.612Z,27.30
2023-03-22T05:23:43.383Z,22.60
2023-03-22T05:26:11.238Z,20.70
2023-03-22T05:28:39.621Z,21.60
2023-03-22T05:31:08.561Z,23.80
2023-03-22T05:33:36.381Z,21.60
2023-03-22T05:36:04.035Z,20.40
2023-03-22T05:38:31.913Z,22.40
2023-03-22T05:40:59.772Z,23.00
2023-03-22T05:43:27.439Z,23.00
2023-03-22T05:45:55.198Z,21.50
2023-03-22T05:48:22.996Z,21.50
2023-03-22T05:50:51.141Z,21.70
2023-03-22T05:53:18.884Z,21.90
2023-03-22T05:55:46.666Z,23.60
2023-03-22T05:58:19.254Z,22.90
2023-03-22T06:00:50.075Z,23.10
2023-03-22T06:03:18.642Z,21.30
2023-03-22T06:05:46.938Z,26.40
2023-03-22T06:08:14.700Z,29.30
2023-03-22T06:10:42.778Z,29.70
2023-03-22T06:13:10.667Z,26.90
2023-03-22T06:15:38.412Z,22.30
2023-03-22T06:18:06.474Z,21.20
2023-03-22T06:20:35.472Z,19.60
2023-03-22T06:23:03.245Z,19.10
2023-03-22T06:25:31.201Z,17.90
2023-03-22T06:27:59.181Z,18.60
2023-03-22T06:30:26.914Z,17.90
2023-03-22T06:32:55.207Z,18.90
2023-03-22T06:35:22.980Z,19.10
2023-03-22T06:37:51.243Z,19.10
2023-03-22T06:40:18.924Z,19.20
2023-03-22T06:42:46.667Z,18.50
2023-03-22T06:45:16.650Z,18.90
2023-03-22T06:47:44.640Z,19.20
2023-03-22T06:50:12.520Z,19.30
2023-03-22T06:52:40.181Z,19.20
2023-03-22T06:55:07.839Z,21.10
2023-03-22T06:57:35.505Z,19.20
2023-03-22T07:00:03.163Z,20.70
2023-03-22T07:02:30.938Z,19.30
2023-03-22T07:04:58.690Z,20.30
2023-03-22T07:07:26.355Z,16.90
2023-03-22T07:09:54.325Z,18.00
2023-03-22T07:12:21.987Z,22.90
2023-03-22T07:17:35.640Z,21.00
2023-03-22T07:20:04.225Z,20.20
2023-03-22T07:22:31.989Z,20.90
2023-03-22T07:25:01.647Z,20.40
2023-03-22T07:27:29.765Z,19.20
2023-03-22T07:29:57.851Z,18.50
2023-03-22T07:32:25.955Z,20.10
2023-03-22T07:34:53.775Z,19.00
2023-03-22T07:37:21.438Z,16.90
2023-03-22T07:39:49.103Z,17.40
2023-03-22T07:42:16.855Z,18.40
2023-03-22T07:44:44.738Z,17.90
2023-03-22T07:47:12.501Z,18.10
2023-03-22T07:49:40.165Z,17.00
2023-03-22T07:52:08.028Z,20.90
2023-03-22T07:54:35.920Z,21.80
2023-03-22T07:57:03.994Z,19.30
2023-03-22T07:59:32.256Z,19.20
2023-03-22T08:02:00.084Z,18.40
2023-03-22T08:04:28.080Z,19.10
2023-03-22T08:06:58.813Z,21.00
2023-03-22T08:09:26.474Z,17.60
2023-03-22T08:11:54.137Z,18.30
2023-03-22T08:14:27.417Z,18.30
2023-03-22T08:17:01.857Z,18.30
2023-03-22T08:19:29.613Z,17.00
2023-03-22T08:21:57.383Z,17.40
2023-03-22T08:24:25.247Z,17.80
2023-03-22T08:26:52.908Z,16.50
2023-03-22T08:29:23.434Z,18.30
2023-03-22T08:31:51.338Z,15.60
2023-03-22T08:34:19.271Z,15.80
2023-03-22T08:36:46.929Z,17.80
2023-03-22T08:39:14.590Z,16.90
2023-03-22T08:41:42.355Z,14.60
2023-03-22T08:44:10.119Z,17.30
2023-03-22T08:46:37.789Z,17.50
2023-03-22T08:49:05.453Z,16.00
2023-03-22T08:51:33.103Z,13.80
2023-03-22T08:54:00.976Z,14.00
2023-03-22T08:56:29.244Z,14.30
2023-03-22T08:58:56.906Z,13.60
2023-03-22T09:01:26.874Z,16.20
2023-03-22T09:03:54.690Z,16.00
2023-03-22T09:06:22.451Z,14.40
2023-03-22T09:08:52.471Z,14.20
2023-03-22T09:11:20.956Z,14.10
2023-03-22T09:13:48.625Z,13.10
2023-03-22T09:16:17.182Z,13.00
2023-03-22T09:18:44.963Z,12.30
2023-03-22T09:21:12.624Z,11.90
2023-03-22T09:23:40.689Z,10.20
2023-03-22T09:26:08.353Z,10.20
2023-03-22T09:28:36.530Z,11.90
2023-03-22T09:31:04.586Z,11.40
2023-03-22T09:33:32.566Z,10.80
2023-03-22T09:36:01.327Z,10.60
2023-03-22T09:38:32.699Z,11.10
2023-03-22T09:41:03.436Z,11.50
2023-03-22T09:43:33.068Z,12.00
2023-03-22T09:46:01.056Z,10.40
2023-03-22T09:48:28.972Z,9.80
2023-03-22T09:50:56.740Z,8.30
2023-03-22T09:53:24.403Z,10.90
2023-03-22T09:55:52.065Z,10.80
2023-03-22T09:58:19.794Z,10.50
2023-03-22T10:00:47.684Z,10.20
2023-03-22T10:03:15.562Z,9.80
2023-03-22T10:05:43.370Z,10.00
2023-03-22T10:08:11.092Z,10.40
2023-03-22T10:10:42.134Z,8.80
2023-03-22T10:13:09.897Z,9.90
2023-03-22T10:15:37.570Z,7.60
2023-03-22T10:18:05.422Z,5.80
2023-03-22T10:20:33.192Z,6.40
2023-03-22T10:23:01.444Z,5.90
2023-03-22T10:25:29.225Z,5.60
2023-03-22T10:27:57.982Z,6.70
2023-03-22T10:30:26.822Z,7.10
2023-03-22T10:32:57.912Z,6.30
2023-03-22T10:35:26.196Z,7.40
2023-03-22T10:37:54.422Z,7.20
2023-03-22T10:40:22.162Z,7.10
2023-03-22T10:42:49.820Z,6.20
2023-03-22T10:45:17.497Z,5.80
2023-03-22T10:47:45.537Z,5.60
2023-03-22T10:50:13.319Z,5.80
2023-03-22T10:52:41.405Z,5.40
2023-03-22T10:55:09.164Z,5.00
2023-03-22T10:57:36.923Z,4.90
2023-03-22T11:00:08.374Z,5.10
2023-03-22T11:02:36.234Z,5.00
2023-03-22T11:05:04.103Z,5.00
2023-03-22T11:07:31.779Z,5.30
2023-03-22T11:09:59.533Z,5.20
2023-03-22T11:12:27.296Z,5.30
2023-03-22T11:14:54.958Z,4.80
2023-03-22T11:17:22.621Z,5.40
2023-03-22T11:19:50.494Z,5.20
2023-03-22T11:22:18.451Z,6.00
2023-03-22T11:24:46.113Z,5.10
2023-03-22T11:27:15.723Z,5.40
2023-03-22T11:29:43.487Z,5.60
2023-03-22T11:32:11.170Z,6.10
2023-03-22T11:34:38.810Z,6.40
2023-03-22T11:37:06.473Z,7.50
2023-03-22T11:39:34.172Z,6.60
2023-03-22T11:42:01.996Z,5.80
2023-03-22T11:44:29.662Z,7.50
2023-03-22T11:47:03.673Z,7.10
2023-03-22T11:49:31.951Z,7.00
2023-03-22T11:51:59.714Z,6.60
2023-03-22T11:54:27.373Z,6.60
2023-03-22T11:56:55.067Z,6.50
2023-03-22T11:59:22.802Z,6.40
2023-03-22T12:01:51.487Z,8.40
2023-03-22T12:04:20.430Z,9.20
2023-03-22T12:06:48.757Z,6.40
2023-03-22T12:09:16.529Z,6.10
2023-03-22T12:11:44.178Z,6.70
2023-03-22T12:14:11.941Z,5.10
2023-03-22T12:16:39.776Z,5.10
2023-03-22T12:19:07.778Z,4.60
2023-03-22T12:21:35.656Z,4.90
2023-03-22T12:24:03.332Z,4.70
2023-03-22T12:26:31.380Z,5.10
2023-03-22T12:28:59.150Z,4.70
2023-03-22T12:31:27.855Z,4.30
2023-03-22T12:33:56.030Z,4.60
2023-03-22T12:36:23.795Z,4.10
2023-03-22T12:38:51.635Z,4.40
2023-03-22T12:41:19.300Z,4.50
2023-03-22T12:43:47.063Z,4.50
2023-03-22T12:46:14.782Z,4.30
2023-03-22T12:48:44.598Z,4.60
2023-03-22T12:51:13.701Z,4.00
2023-03-22T12:53:42.763Z,4.20
2023-03-22T12:56:10.804Z,4.50
2023-03-22T12:58:38.457Z,4.20
2023-03-22T13:01:06.199Z,4.30
2023-03-22T13:03:35.262Z,4.90
2023-03-22T13:06:03.307Z,4.80
2023-03-22T13:08:32.317Z,4.00
2023-03-22T13:11:00.146Z,4.20
2023-03-22T13:13:28.024Z,4.70
2023-03-22T13:15:55.789Z,4.00
2023-03-22T13:18:23.541Z,4.60
2023-03-22T13:20:51.201Z,4.10
2023-03-22T13:23:18.863Z,4.20
2023-03-22T13:25:46.531Z,4.70
2023-03-22T13:28:14.186Z,4.80
2023-03-22T13:30:41.959Z,5.00
2023-03-22T13:33:09.991Z,4.70
2023-03-22T13:35:38.007Z,4.40
2023-03-22T13:38:06.164Z,4.90
2023-03-22T13:40:35.154Z,4.80
2023-03-22T13:43:02.819Z,4.60
2023-03-22T13:45:32.217Z,4.30
2023-03-22T13:47:59.942Z,6.00
2023-03-22T13:50:27.872Z,6.00
2023-03-22T13:52:55.717Z,5.00
2023-03-22T13:55:23.376Z,4.40
2023-03-22T13:57:51.230Z,5.00
2023-03-22T14:00:20.630Z,6.20
2023-03-22T14:02:48.800Z,6.30
2023-03-22T14:05:16.789Z,5.80
2023-03-22T14:07:44.770Z,5.20
2023-03-22T14:10:12.525Z,5.00
2023-03-22T14:12:40.491Z,5.40
2023-03-22T14:15:08.266Z,4.90
2023-03-22T14:17:36.362Z,5.20
2023-03-22T14:20:06.749Z,4.70
